Airfield :
LOGIN :

Register | Disclaimer

   EN    FR    IT 

 










Legend :    VFR   Marginal VFR   IFR   Intensive IFR   Very Intensive IFR
Visi :
Ceiling :
>= 8 km
>= 3000ft
5 to 8 km
1000 to 3000 ft
1500m to 5 km
500 to 1000 ft
800 to 1500m
200 to 500 ft
< 800m
< 200 ft
Symbols :   Thunderstorms  Fog  Heavy snow  Heavy precipitations  Wind > 20 kt
SIGMETs :     Misc.  Thunderstorms  Icing  Turbulence  Mountain Waves  Volcanic Ashes







- Airport Elevation : 102 ft
- IATA code : CNG
- Download approach charts


LFBG - Cognac

CURRENT METAR :
  • 200700Z AUTO 00000KT 3500 BR OVC003 12/11 Q1013 BECMG 6000 NSW

EXPIRED METARs :
  • 200630Z AUTO VRB01KT 4700 BR OVC002 11/11 Q1013 BECMG 6000 NSW
  • 200600Z AUTO VRB02KT 4300 BR OVC003 11/11 Q1013 BECMG 6000 NSW
  • 200530Z AUTO 28004KT 7000 OVC003 11/11 Q1012
  • 200500Z AUTO 25003KT 9999 OVC004 11/11 Q1012
  • 200430Z AUTO VRB03KT 9999 OVC005 11/10 Q1012

TAF TAF LFBG
Valid from the 20 at 03:00 until the 21 at 03:00 UTC


200500Z 2003/2103 28005KT 6000 BKN003
BECMG 2009/2011 SCT020 BKN040
PROB40
TEMPO 2012/2017 4000 -SHRA BKN025TCU
No reported NOTAMs for that airfield.



MET'MAP, your aeronautical weather chart ! - Copyright ORBIFLY December 2007 - Disclaimer

ORBIFLY MET'MAP TEAM :

Programming & Development : Alexandra Zaïnal
Concept & Development : Baudouin d'Aumeries
Co-Development & Prog : Marc-Olivier Méhu
Technical & hardware support : Manuel Goepfert

Contact : metmap@orbifly.com




SOURCES & CREDITS :

   NOAA